createdAt,value
2022-12-09T00:04:04.607Z,-1.00
2022-12-09T00:06:31.541Z,-1.00
2022-12-09T00:08:58.994Z,-1.00
2022-12-09T00:11:26.625Z,-0.90
2022-12-09T00:13:56.274Z,-1.00
2022-12-09T00:16:24.227Z,-1.00
2022-12-09T00:18:51.516Z,-1.00
2022-12-09T00:21:23.861Z,-0.90
2022-12-09T00:23:53.143Z,-0.90
2022-12-09T00:26:21.744Z,-0.90
2022-12-09T00:28:49.978Z,-1.00
2022-12-09T00:34:10.860Z,-0.90
2022-12-09T00:39:24.624Z,-1.00
2022-12-09T00:41:51.661Z,-1.00
2022-12-09T00:44:18.799Z,-1.00
2022-12-09T00:46:45.989Z,-1.00
2022-12-09T00:49:12.918Z,-1.00
2022-12-09T00:51:39.703Z,-1.00
2022-12-09T00:54:06.482Z,-0.90
2022-12-09T00:56:33.364Z,-0.90
2022-12-09T01:01:47.393Z,-0.90
2022-12-09T01:04:14.332Z,-0.80
2022-12-09T01:06:41.141Z,-0.80
2022-12-09T01:09:08.020Z,-0.80
2022-12-09T01:11:34.984Z,-0.90
2022-12-09T01:14:03.109Z,-0.80
2022-12-09T01:16:32.652Z,-0.70
2022-12-09T01:19:02.514Z,-0.80
2022-12-09T01:21:30.537Z,-0.80
2022-12-09T01:23:57.486Z,-0.70
2022-12-09T01:26:24.860Z,-0.70
2022-12-09T01:28:51.802Z,-0.70
2022-12-09T01:31:22.241Z,-0.70
2022-12-09T01:33:49.902Z,-0.80
2022-12-09T01:36:19.074Z,-0.80
2022-12-09T01:38:47.271Z,-0.80
2022-12-09T01:41:15.510Z,-0.90
2022-12-09T01:43:42.842Z,-0.90
2022-12-09T01:46:09.806Z,-0.90
2022-12-09T01:48:43.471Z,-1.00
2022-12-09T01:51:19.596Z,-1.10
2022-12-09T01:53:50.205Z,-1.10
2022-12-09T01:59:15.988Z,-1.00
2022-12-09T02:04:38.212Z,-1.00
2022-12-09T02:09:37.082Z,-1.00
2022-12-09T02:15:30.869Z,-1.00
2022-12-09T02:18:02.395Z,-0.90
2022-12-09T02:20:37.373Z,-0.90
2022-12-09T02:23:18.929Z,-0.90
2022-12-09T02:25:47.264Z,-0.90
2022-12-09T02:28:39.123Z,-0.90
2022-12-09T02:31:21.762Z,-0.90
2022-12-09T02:34:08.521Z,-0.90
2022-12-09T02:39:56.793Z,-0.80
2022-12-09T02:42:27.173Z,-0.90
2022-12-09T02:44:54.029Z,-0.80
2022-12-09T02:47:24.472Z,-0.80
2022-12-09T02:49:55.928Z,-0.90
2022-12-09T02:52:23.601Z,-1.00
2022-12-09T02:54:51.886Z,-0.90
2022-12-09T02:57:23.557Z,-0.90
2022-12-09T02:59:50.695Z,-1.00
2022-12-09T03:02:28.353Z,-1.10
2022-12-09T03:05:16.864Z,-1.00
2022-12-09T03:08:11.281Z,-1.10
2022-12-09T03:10:48.843Z,-1.10
2022-12-09T03:16:25.090Z,-1.10
2022-12-09T03:18:58.554Z,-1.20
2022-12-09T03:21:28.107Z,-1.10
2022-12-09T03:23:56.940Z,-1.10
2022-12-09T03:26:26.391Z,-1.10
2022-12-09T03:28:55.352Z,-1.20
2022-12-09T03:31:24.942Z,-1.30
2022-12-09T03:33:57.102Z,-1.20
2022-12-09T03:36:26.485Z,-1.30
2022-12-09T03:41:48.249Z,-1.20
2022-12-09T03:47:08.044Z,-1.40
2022-12-09T03:52:40.831Z,-1.30
2022-12-09T03:55:23.238Z,-1.50
2022-12-09T03:57:54.506Z,-1.40
2022-12-09T04:00:21.613Z,-1.40
2022-12-09T04:02:48.896Z,-1.40
2022-12-09T04:05:16.195Z,-1.40
2022-12-09T04:07:43.428Z,-1.60
2022-12-09T04:10:10.709Z,-1.50
2022-12-09T04:12:37.846Z,-1.50
2022-12-09T04:15:05.280Z,-1.50
2022-12-09T04:17:32.135Z,-1.40
2022-12-09T04:19:58.969Z,-1.50
2022-12-09T04:22:25.735Z,-1.40
2022-12-09T04:24:52.512Z,-1.40
2022-12-09T04:30:07.477Z,-1.40
2022-12-09T04:32:34.697Z,-1.30
2022-12-09T04:35:01.661Z,-1.30
2022-12-09T04:37:28.824Z,-1.30
2022-12-09T04:39:55.592Z,-1.20
2022-12-09T04:42:22.489Z,-1.20
2022-12-09T04:44:49.612Z,-1.30
2022-12-09T04:47:16.979Z,-1.30
2022-12-09T04:52:10.652Z,-1.20
2022-12-09T04:54:37.395Z,-1.20
2022-12-09T04:59:51.138Z,-1.30
2022-12-09T05:02:18.418Z,-1.20
2022-12-09T05:04:45.497Z,-1.30
2022-12-09T05:07:12.653Z,-1.40
2022-12-09T05:09:39.896Z,-1.40
2022-12-09T05:12:07.413Z,-1.60
2022-12-09T05:14:34.482Z,-1.60
2022-12-09T05:17:03.017Z,-1.70
2022-12-09T05:19:30.237Z,-1.70
2022-12-09T05:21:57.502Z,-1.70
2022-12-09T05:24:24.396Z,-1.60
2022-12-09T05:26:51.357Z,-1.60
2022-12-09T05:29:22.792Z,-1.70
2022-12-09T05:34:37.793Z,-1.60
2022-12-09T05:37:05.487Z,-1.70
2022-12-09T05:39:32.716Z,-1.60
2022-12-09T05:41:59.526Z,-1.60
2022-12-09T05:44:26.327Z,-1.60
2022-12-09T05:49:39.964Z,-1.60
2022-12-09T05:52:06.933Z,-1.50
2022-12-09T05:54:33.992Z,-1.50
2022-12-09T05:59:47.590Z,-1.50
2022-12-09T06:02:14.578Z,-1.50
2022-12-09T06:04:42.191Z,-1.40
2022-12-09T06:07:09.513Z,-1.40
2022-12-09T06:09:37.061Z,-1.30
2022-12-09T06:12:04.307Z,-1.40
2022-12-09T06:14:31.403Z,-1.50
2022-12-09T06:16:58.213Z,-1.40
2022-12-09T06:19:25.336Z,-1.40
2022-12-09T06:21:52.238Z,-1.40
2022-12-09T06:27:05.880Z,-1.30
2022-12-09T06:29:33.162Z,-1.40
2022-12-09T06:32:00.295Z,-1.40
2022-12-09T06:34:27.578Z,-1.50
2022-12-09T06:36:54.788Z,-1.40
2022-12-09T06:39:21.715Z,-1.40
2022-12-09T06:41:48.629Z,-1.30
2022-12-09T06:44:21.733Z,-1.40
2022-12-09T06:46:50.640Z,-1.40
2022-12-09T06:49:18.373Z,-1.40
2022-12-09T06:51:45.552Z,-1.40
2022-12-09T06:54:12.817Z,-1.40
2022-12-09T06:59:26.389Z,-1.30
2022-12-09T07:01:53.479Z,-1.30
2022-12-09T07:07:09.716Z,-1.30
2022-12-09T07:09:37.014Z,-1.20
2022-12-09T07:12:04.209Z,-1.30
2022-12-09T07:14:31.351Z,-1.20
2022-12-09T07:16:58.350Z,-1.40
2022-12-09T07:19:25.669Z,-1.40
2022-12-09T07:24:40.649Z,-1.30
2022-12-09T07:27:13.033Z,-1.20
2022-12-09T07:29:43.290Z,-1.20
2022-12-09T07:32:11.691Z,-1.10
2022-12-09T07:34:38.992Z,-1.10
2022-12-09T07:37:06.518Z,-1.10
2022-12-09T07:39:33.593Z,-1.10
2022-12-09T07:42:00.811Z,-1.10
2022-12-09T07:44:28.192Z,-1.10
2022-12-09T07:46:56.036Z,-1.20
2022-12-09T07:49:24.147Z,-1.30
2022-12-09T07:51:51.507Z,-1.10
2022-12-09T07:54:19.777Z,-1.10
2022-12-09T07:56:47.037Z,-1.10
2022-12-09T07:59:16.091Z,-1.10
2022-12-09T08:01:43.765Z,-1.00
2022-12-09T08:04:11.197Z,-1.10
2022-12-09T08:09:08.656Z,-1.20
2022-12-09T08:11:36.705Z,-1.10
2022-12-09T08:14:11.407Z,-1.20
2022-12-09T08:16:41.135Z,-1.00
2022-12-09T08:19:09.331Z,-1.00
2022-12-09T08:21:36.806Z,-1.00
2022-12-09T08:24:05.644Z,-1.00
2022-12-09T08:26:33.407Z,-1.00
2022-12-09T08:29:00.989Z,-1.00
2022-12-09T08:31:28.808Z,-1.10
2022-12-09T08:33:56.186Z,-1.10
2022-12-09T08:36:27.430Z,-1.00
2022-12-09T08:38:55.387Z,-1.00
2022-12-09T08:41:31.645Z,-1.00
2022-12-09T08:43:58.537Z,-0.90
2022-12-09T08:46:25.714Z,-0.90
2022-12-09T08:48:52.915Z,-0.90
2022-12-09T08:51:20.302Z,-0.90
2022-12-09T08:53:47.543Z,-0.90
2022-12-09T08:56:15.587Z,-1.00
2022-12-09T08:58:43.113Z,-0.80
2022-12-09T09:01:25.932Z,-0.80
2022-12-09T09:03:53.114Z,-0.90
2022-12-09T09:06:20.578Z,-0.80
2022-12-09T09:08:48.006Z,-0.70
2022-12-09T09:11:18.848Z,-0.70
2022-12-09T09:13:48.935Z,-0.70
2022-12-09T09:16:19.535Z,-0.60
2022-12-09T09:18:46.722Z,-0.60
2022-12-09T09:21:16.876Z,-0.50
2022-12-09T09:23:44.613Z,-0.50
2022-12-09T09:26:17.863Z,-0.30
2022-12-09T09:28:45.309Z,-0.30
2022-12-09T09:31:16.154Z,-0.30
2022-12-09T09:33:43.763Z,-0.40
2022-12-09T09:36:37.600Z,-0.30
2022-12-09T09:39:04.595Z,-0.40
2022-12-09T09:41:52.648Z,-0.40
2022-12-09T09:44:34.665Z,-0.40
2022-12-09T09:47:12.339Z,-0.50
2022-12-09T09:53:20.884Z,-0.30
2022-12-09T09:56:00.729Z,-0.30
2022-12-09T09:58:57.267Z,-0.30
2022-12-09T10:01:28.913Z,-0.30
2022-12-09T10:03:56.358Z,-0.50
2022-12-09T10:06:42.636Z,-0.40
2022-12-09T10:09:28.396Z,-0.30
2022-12-09T10:12:00.915Z,-0.30
2022-12-09T10:14:31.431Z,-0.20
2022-12-09T10:17:26.092Z,-0.20
2022-12-09T10:20:02.775Z,-0.20
2022-12-09T10:22:37.591Z,-0.20
2022-12-09T10:25:21.153Z,-0.10
2022-12-09T10:28:01.677Z,-0.40
2022-12-09T10:30:35.311Z,-0.30
2022-12-09T10:33:04.848Z,-0.20
2022-12-09T10:35:31.819Z,-0.10
2022-12-09T10:38:09.673Z,-0.30
2022-12-09T10:40:45.387Z,-0.20
2022-12-09T10:43:28.155Z,-0.10
2022-12-09T10:48:47.519Z,-0.10
2022-12-09T10:51:21.665Z,-0.20
2022-12-09T10:54:03.497Z,-0.30
2022-12-09T10:56:36.838Z,-0.20
2022-12-09T10:59:27.192Z,-0.10
2022-12-09T11:02:07.946Z,-0.10
2022-12-09T11:04:39.523Z,0.00
2022-12-09T11:07:13.138Z,0.00
2022-12-09T11:09:44.216Z,0.10
2022-12-09T11:12:20.121Z,0.20
2022-12-09T11:14:53.381Z,0.20
2022-12-09T11:17:30.050Z,0.20
2022-12-09T11:20:06.116Z,0.20
2022-12-09T11:22:37.651Z,0.10
2022-12-09T11:25:25.710Z,0.20
2022-12-09T11:28:17.278Z,0.30
2022-12-09T11:31:28.232Z,0.30
2022-12-09T11:36:53.431Z,0.30
2022-12-09T11:39:28.114Z,0.10
2022-12-09T11:41:56.709Z,0.10
2022-12-09T11:47:57.156Z,0.30
2022-12-09T11:50:28.290Z,0.30
2022-12-09T11:53:13.284Z,0.20
2022-12-09T11:55:48.312Z,0.30
2022-12-09T11:58:29.164Z,0.10
2022-12-09T12:01:05.614Z,0.00
2022-12-09T12:06:53.358Z,0.00
2022-12-09T12:09:31.725Z,0.00
2022-12-09T12:12:21.576Z,0.10
2022-12-09T12:14:48.505Z,0.00
2022-12-09T12:17:33.630Z,0.00
2022-12-09T12:20:00.639Z,0.10
2022-12-09T12:22:49.057Z,0.30
2022-12-09T12:25:25.501Z,0.20
2022-12-09T12:28:24.126Z,0.30
2022-12-09T12:31:00.727Z,0.30
2022-12-09T12:34:23.364Z,0.30
2022-12-09T12:37:19.456Z,0.30
2022-12-09T12:40:08.111Z,0.20
2022-12-09T12:42:53.505Z,0.30
2022-12-09T12:45:26.508Z,0.20
2022-12-09T12:48:12.141Z,0.20
2022-12-09T12:51:00.915Z,0.10
2022-12-09T12:57:16.915Z,0.20
2022-12-09T12:59:55.042Z,0.20
2022-12-09T13:02:59.286Z,0.30
2022-12-09T13:05:36.383Z,0.20
2022-12-09T13:08:06.324Z,0.10
2022-12-09T13:10:45.290Z,0.20
2022-12-09T13:13:27.094Z,0.10
2022-12-09T13:15:59.291Z,0.10
2022-12-09T13:21:02.573Z,0.00
2022-12-09T13:23:50.979Z,0.00
2022-12-09T13:26:26.546Z,0.10
2022-12-09T13:29:22.342Z,0.10
2022-12-09T13:32:19.155Z,0.00
2022-12-09T13:34:55.652Z,0.00
2022-12-09T13:37:54.405Z,0.00
2022-12-09T13:40:21.158Z,0.00
2022-12-09T13:45:45.490Z,0.20
2022-12-09T13:50:43.323Z,0.20
2022-12-09T13:53:31.080Z,0.10
2022-12-09T13:56:07.712Z,0.20
2022-12-09T13:58:34.444Z,0.20
2022-12-09T14:01:18.359Z,0.20
2022-12-09T14:07:09.889Z,0.20
2022-12-09T14:09:41.514Z,0.10
2022-12-09T14:12:12.255Z,0.00
2022-12-09T14:14:53.102Z,-0.10
2022-12-09T14:17:19.796Z,0.00
2022-12-09T14:20:22.029Z,0.00
2022-12-09T14:23:13.004Z,0.00
2022-12-09T14:25:54.129Z,0.00
2022-12-09T14:28:35.795Z,-0.10
2022-12-09T14:31:08.407Z,-0.10
2022-12-09T14:33:44.334Z,0.00
2022-12-09T14:36:13.867Z,0.00
2022-12-09T14:39:23.035Z,0.00
2022-12-09T14:41:51.263Z,0.00
2022-12-09T14:47:43.424Z,0.00
2022-12-09T14:50:19.733Z,-0.10
2022-12-09T14:52:59.936Z,-0.10
2022-12-09T14:55:28.362Z,-0.10
2022-12-09T14:57:58.005Z,-0.10
2022-12-09T15:00:38.863Z,-0.10
2022-12-09T15:03:33.116Z,-0.20
2022-12-09T15:06:05.444Z,-0.20
2022-12-09T15:08:40.242Z,-0.30
2022-12-09T15:11:13.386Z,-0.20
2022-12-09T15:13:43.435Z,-0.20
2022-12-09T15:16:15.988Z,-0.20
2022-12-09T15:21:32.516Z,-0.20
2022-12-09T15:24:00.515Z,-0.20
2022-12-09T15:26:30.146Z,-0.10
2022-12-09T15:28:57.943Z,-0.20
2022-12-09T15:31:27.053Z,-0.20
2022-12-09T15:33:56.673Z,-0.20
2022-12-09T15:36:52.405Z,-0.20
2022-12-09T15:39:31.174Z,-0.40
2022-12-09T15:42:22.190Z,-0.40
2022-12-09T15:45:01.117Z,-0.40
2022-12-09T15:47:42.996Z,-0.40
2022-12-09T15:53:27.085Z,-0.40
2022-12-09T15:56:12.964Z,-0.40
2022-12-09T16:01:36.061Z,-0.40
2022-12-09T16:04:05.401Z,-0.40
2022-12-09T16:06:37.540Z,-0.30
2022-12-09T16:09:13.628Z,-0.40
2022-12-09T16:11:49.309Z,-0.40
2022-12-09T16:14:18.530Z,-0.40
2022-12-09T16:17:04.270Z,-0.40
2022-12-09T16:19:30.988Z,-0.40
2022-12-09T16:22:31.054Z,-0.40
2022-12-09T16:25:14.118Z,-0.40
2022-12-09T16:27:46.179Z,-0.40
2022-12-09T16:30:16.473Z,-0.50
2022-12-09T16:32:51.102Z,-0.40
2022-12-09T16:35:17.841Z,-0.50
2022-12-09T16:38:08.626Z,-0.40
2022-12-09T16:40:38.480Z,-0.40
2022-12-09T16:46:15.520Z,-0.40
2022-12-09T16:48:42.307Z,-0.40
2022-12-09T16:51:18.592Z,-0.40
2022-12-09T16:56:35.653Z,-0.40
2022-12-09T17:01:49.619Z,-0.40
2022-12-09T17:07:09.066Z,-0.30
2022-12-09T17:12:22.599Z,-0.40
2022-12-09T17:14:49.422Z,-0.40
2022-12-09T17:17:16.201Z,-0.40
2022-12-09T17:19:43.267Z,-0.40
2022-12-09T17:22:10.880Z,-0.50
2022-12-09T17:24:38.432Z,-0.40
2022-12-09T17:27:05.179Z,-0.40
2022-12-09T17:29:31.954Z,-0.40
2022-12-09T17:31:58.723Z,-0.40
2022-12-09T17:34:25.559Z,-0.40
2022-12-09T17:36:52.334Z,-0.50
2022-12-09T17:39:19.107Z,-0.40
2022-12-09T17:41:45.859Z,-0.50
2022-12-09T17:44:12.601Z,-0.40
2022-12-09T17:49:26.038Z,-0.40
2022-12-09T17:54:39.503Z,-0.40
2022-12-09T17:59:52.934Z,-0.40
2022-12-09T18:02:20.073Z,-0.50
2022-12-09T18:04:46.820Z,-0.60
2022-12-09T18:07:13.566Z,-0.50
2022-12-09T18:09:40.342Z,-0.50
2022-12-09T18:12:07.358Z,-0.50
2022-12-09T18:14:34.424Z,-0.40
2022-12-09T18:17:01.283Z,-0.40
2022-12-09T18:19:28.124Z,-0.40
2022-12-09T18:21:55.420Z,-0.40
2022-12-09T18:24:22.303Z,-0.50
2022-12-09T18:26:49.069Z,-0.50
2022-12-09T18:29:15.851Z,-0.50
2022-12-09T18:31:42.856Z,-0.60
2022-12-09T18:34:09.578Z,-0.50
2022-12-09T18:36:36.646Z,-0.50
2022-12-09T18:39:05.052Z,-0.50
2022-12-09T18:41:32.330Z,-0.50
2022-12-09T18:44:02.371Z,-0.50
2022-12-09T18:49:04.220Z,-0.50
2022-12-09T18:51:31.661Z,-0.50
2022-12-09T18:53:59.273Z,-0.50
2022-12-09T18:56:26.273Z,-0.50
2022-12-09T18:59:09.413Z,-0.40
2022-12-09T19:01:39.616Z,-0.40
2022-12-09T19:04:08.692Z,-0.60
2022-12-09T19:09:30.279Z,-0.50
2022-12-09T19:11:57.146Z,-0.50
2022-12-09T19:14:24.173Z,-0.50
2022-12-09T19:16:52.190Z,-0.50
2022-12-09T19:22:10.832Z,-0.60
2022-12-09T19:27:24.283Z,-0.50
2022-12-09T19:32:53.034Z,-0.60
2022-12-09T19:35:20.363Z,-0.60
2022-12-09T19:37:47.129Z,-0.70
2022-12-09T19:40:13.856Z,-0.70
2022-12-09T19:42:40.633Z,-0.70
2022-12-09T19:45:12.105Z,-0.70
2022-12-09T19:47:40.839Z,-0.70
2022-12-09T19:50:08.168Z,-0.70
2022-12-09T19:52:35.048Z,-0.70
2022-12-09T19:55:01.892Z,-0.70
2022-12-09T19:57:28.649Z,-0.60
2022-12-09T19:59:55.422Z,-0.60
2022-12-09T20:02:22.276Z,-0.70
2022-12-09T20:04:50.661Z,-0.70
2022-12-09T20:07:18.444Z,-0.70
2022-12-09T20:09:45.256Z,-0.80
2022-12-09T20:12:12.153Z,-0.70
2022-12-09T20:14:39.323Z,-0.80
2022-12-09T20:17:06.080Z,-0.80
2022-12-09T20:19:32.841Z,-0.70
2022-12-09T20:21:59.641Z,-0.70
2022-12-09T20:24:26.471Z,-0.70
2022-12-09T20:26:53.258Z,-0.60
2022-12-09T20:29:20.014Z,-0.70
2022-12-09T20:31:46.807Z,-0.60
2022-12-09T20:34:15.810Z,-0.60
2022-12-09T20:36:44.217Z,-0.70
2022-12-09T20:39:16.818Z,-0.60
2022-12-09T20:41:44.492Z,-0.70
2022-12-09T20:44:12.705Z,-0.70
2022-12-09T20:46:40.978Z,-0.70
2022-12-09T20:51:54.736Z,-0.70
2022-12-09T20:54:21.684Z,-0.60
2022-12-09T20:56:48.425Z,-0.70
2022-12-09T20:59:15.214Z,-0.70
2022-12-09T21:01:42.255Z,-0.80
2022-12-09T21:04:09.473Z,-0.70
2022-12-09T21:06:38.382Z,-0.70
2022-12-09T21:12:00.804Z,-0.70
2022-12-09T21:14:32.645Z,-0.70
2022-12-09T21:16:59.790Z,-0.70
2022-12-09T21:19:26.591Z,-0.80
2022-12-09T21:21:53.493Z,-0.70
2022-12-09T21:24:20.260Z,-0.70
2022-12-09T21:29:33.743Z,-0.80
2022-12-09T21:34:48.117Z,-0.90
2022-12-09T21:37:14.931Z,-0.90
2022-12-09T21:39:41.690Z,-0.80
2022-12-09T21:42:08.465Z,-0.80
2022-12-09T21:44:35.272Z,-0.80
2022-12-09T21:47:02.039Z,-0.80
2022-12-09T21:49:28.793Z,-1.00
2022-12-09T21:51:55.587Z,-0.90
2022-12-09T21:54:22.357Z,-1.00
2022-12-09T21:56:49.145Z,-1.10
2022-12-09T21:59:15.921Z,-1.00
2022-12-09T22:01:43.323Z,-1.00
2022-12-09T22:04:12.743Z,-1.00
2022-12-09T22:06:40.108Z,-1.00
2022-12-09T22:09:08.067Z,-1.00
2022-12-09T22:11:37.599Z,-1.10
2022-12-09T22:14:06.102Z,-1.00
2022-12-09T22:19:26.110Z,-1.00
2022-12-09T22:21:52.865Z,-1.00
2022-12-09T22:24:19.733Z,-1.00
2022-12-09T22:26:46.610Z,-1.00
2022-12-09T22:31:44.175Z,-1.00
2022-12-09T22:34:14.469Z,-1.00
2022-12-09T22:36:41.572Z,-1.00
2022-12-09T22:39:14.343Z,-1.00
2022-12-09T22:41:41.180Z,-1.10
2022-12-09T22:46:39.307Z,-1.20
2022-12-09T22:49:06.780Z,-1.20
2022-12-09T22:54:23.298Z,-1.20
2022-12-09T22:59:19.271Z,-1.10
2022-12-09T23:01:47.986Z,-1.10
2022-12-09T23:04:16.891Z,-1.10
2022-12-09T23:06:44.532Z,-1.10
2022-12-09T23:09:16.407Z,-1.20
2022-12-09T23:11:43.557Z,-1.30
2022-12-09T23:14:10.374Z,-1.30
2022-12-09T23:16:37.194Z,-1.30
2022-12-09T23:19:04.043Z,-1.30
2022-12-09T23:21:33.858Z,-1.30
2022-12-09T23:24:03.901Z,-1.20
2022-12-09T23:26:33.631Z,-1.20
2022-12-09T23:29:01.771Z,-1.30
2022-12-09T23:31:31.868Z,-1.20
2022-12-09T23:33:59.846Z,-1.20
2022-12-09T23:36:32.925Z,-1.20
2022-12-09T23:39:01.081Z,-1.10
2022-12-09T23:41:28.761Z,-1.30
2022-12-09T23:43:55.820Z,-1.30
2022-12-09T23:46:25.634Z,-1.30
2022-12-09T23:48:53.849Z,-1.30
2022-12-09T23:51:23.632Z,-1.30
2022-12-09T23:53:52.146Z,-1.30
2022-12-09T23:56:21.307Z,-1.20
2022-12-09T23:58:52.644Z,-1.20
